sensor_id;sensor_type;location;lat;lon;timestamp;P1;durP1;ratioP1;P2;durP2;ratioP2
8001;SDS011;4046;48.774;8.732;2022-09-14T00:01:31;3.50;;;3.20;;
8001;SDS011;4046;48.774;8.732;2022-09-14T00:04:20;8.67;;;3.20;;
8001;SDS011;4046;48.774;8.732;2022-09-14T00:06:46;3.53;;;3.00;;
8001;SDS011;4046;48.774;8.732;2022-09-14T00:09:13;3.53;;;3.20;;
8001;SDS011;4046;48.774;8.732;2022-09-14T00:11:42;4.13;;;3.03;;
8001;SDS011;4046;48.774;8.732;2022-09-14T00:14:07;4.97;;;2.87;;
8001;SDS011;4046;48.774;8.732;2022-09-14T00:16:34;4.63;;;3.10;;
8001;SDS011;4046;48.774;8.732;2022-09-14T00:19:04;3.20;;;3.00;;
8001;SDS011;4046;48.774;8.732;2022-09-14T00:21:37;3.00;;;2.80;;
8001;SDS011;4046;48.774;8.732;2022-09-14T00:24:03;3.60;;;3.23;;
8001;SDS011;4046;48.774;8.732;2022-09-14T00:26:31;3.00;;;2.80;;
8001;SDS011;4046;48.774;8.732;2022-09-14T00:28:58;3.57;;;3.27;;
8001;SDS011;4046;48.774;8.732;2022-09-14T00:31:28;3.67;;;3.03;;
8001;SDS011;4046;48.774;8.732;2022-09-14T00:34:05;3.53;;;3.23;;
8001;SDS011;4046;48.774;8.732;2022-09-14T00:36:33;3.83;;;3.13;;
8001;SDS011;4046;48.774;8.732;2022-09-14T00:39:03;3.70;;;2.90;;
8001;SDS011;4046;48.774;8.732;2022-09-14T00:41:30;3.83;;;2.83;;
8001;SDS011;4046;48.774;8.732;2022-09-14T00:46:39;5.50;;;3.23;;
8001;SDS011;4046;48.774;8.732;2022-09-14T00:49:09;6.60;;;3.70;;
8001;SDS011;4046;48.774;8.732;2022-09-14T00:51:40;3.20;;;2.90;;
8001;SDS011;4046;48.774;8.732;2022-09-14T00:54:22;4.77;;;3.20;;
8001;SDS011;4046;48.774;8.732;2022-09-14T00:56:48;3.30;;;3.00;;
8001;SDS011;4046;48.774;8.732;2022-09-14T00:59:16;3.60;;;3.00;;
8001;SDS011;4046;48.774;8.732;2022-09-14T01:01:46;4.60;;;3.23;;
8001;SDS011;4046;48.774;8.732;2022-09-14T01:04:13;3.97;;;3.47;;
8001;SDS011;4046;48.774;8.732;2022-09-14T01:06:43;7.63;;;3.00;;
8001;SDS011;4046;48.774;8.732;2022-09-14T01:12:28;5.07;;;3.60;;
8001;SDS011;4046;48.774;8.732;2022-09-14T01:17:42;3.90;;;3.50;;
8001;SDS011;4046;48.774;8.732;2022-09-14T01:20:26;7.83;;;4.30;;
8001;SDS011;4046;48.774;8.732;2022-09-14T01:23:14;15.50;;;5.23;;
8001;SDS011;4046;48.774;8.732;2022-09-14T01:34:38;19.07;;;10.33;;
8001;SDS011;4046;48.774;8.732;2022-09-14T01:37:23;16.53;;;10.00;;
8001;SDS011;4046;48.774;8.732;2022-09-14T01:40:29;13.80;;;10.30;;
8001;SDS011;4046;48.774;8.732;2022-09-14T01:43:08;12.20;;;9.80;;
8001;SDS011;4046;48.774;8.732;2022-09-14T01:45:36;12.20;;;9.90;;
8001;SDS011;4046;48.774;8.732;2022-09-14T01:48:06;12.83;;;9.97;;
8001;SDS011;4046;48.774;8.732;2022-09-14T01:50:45;11.37;;;10.27;;
8001;SDS011;4046;48.774;8.732;2022-09-14T01:53:19;13.07;;;9.50;;
8001;SDS011;4046;48.774;8.732;2022-09-14T02:00:55;12.27;;;10.60;;
8001;SDS011;4046;48.774;8.732;2022-09-14T02:03:27;13.47;;;10.33;;
8001;SDS011;4046;48.774;8.732;2022-09-14T02:06:03;13.77;;;10.70;;
8001;SDS011;4046;48.774;8.732;2022-09-14T02:08:34;15.87;;;11.17;;
8001;SDS011;4046;48.774;8.732;2022-09-14T02:11:00;15.17;;;11.83;;
8001;SDS011;4046;48.774;8.732;2022-09-14T02:13:26;18.60;;;11.73;;
8001;SDS011;4046;48.774;8.732;2022-09-14T02:15:52;15.43;;;11.07;;
8001;SDS011;4046;48.774;8.732;2022-09-14T02:18:18;12.17;;;10.67;;
8001;SDS011;4046;48.774;8.732;2022-09-14T02:20:50;13.30;;;11.10;;
8001;SDS011;4046;48.774;8.732;2022-09-14T02:23:17;11.53;;;9.53;;
8001;SDS011;4046;48.774;8.732;2022-09-14T02:25:43;11.80;;;10.50;;
8001;SDS011;4046;48.774;8.732;2022-09-14T02:28:10;15.90;;;11.90;;
8001;SDS011;4046;48.774;8.732;2022-09-14T02:36:15;13.00;;;11.80;;
8001;SDS011;4046;48.774;8.732;2022-09-14T02:38:58;12.50;;;11.20;;
8001;SDS011;4046;48.774;8.732;2022-09-14T02:41:57;12.60;;;11.30;;
8001;SDS011;4046;48.774;8.732;2022-09-14T02:47:43;12.90;;;11.23;;
8001;SDS011;4046;48.774;8.732;2022-09-14T02:55:23;10.63;;;9.53;;
8001;SDS011;4046;48.774;8.732;2022-09-14T02:58:04;12.03;;;10.80;;
8001;SDS011;4046;48.774;8.732;2022-09-14T03:00:31;14.93;;;12.57;;
8001;SDS011;4046;48.774;8.732;2022-09-14T03:03:01;15.30;;;11.50;;
8001;SDS011;4046;48.774;8.732;2022-09-14T03:05:30;14.10;;;11.00;;
8001;SDS011;4046;48.774;8.732;2022-09-14T03:07:57;14.50;;;10.10;;
8001;SDS011;4046;48.774;8.732;2022-09-14T03:10:23;10.97;;;9.87;;
8001;SDS011;4046;48.774;8.732;2022-09-14T03:12:49;12.30;;;10.20;;
8001;SDS011;4046;48.774;8.732;2022-09-14T03:15:14;12.20;;;10.53;;
8001;SDS011;4046;48.774;8.732;2022-09-14T03:17:43;12.97;;;11.70;;
8001;SDS011;4046;48.774;8.732;2022-09-14T03:20:10;11.40;;;10.27;;
8001;SDS011;4046;48.774;8.732;2022-09-14T03:22:36;14.00;;;12.20;;
8001;SDS011;4046;48.774;8.732;2022-09-14T03:25:01;13.10;;;11.90;;
8001;SDS011;4046;48.774;8.732;2022-09-14T03:27:27;12.60;;;11.33;;
8001;SDS011;4046;48.774;8.732;2022-09-14T03:29:53;13.93;;;10.93;;
8001;SDS011;4046;48.774;8.732;2022-09-14T03:32:18;12.70;;;11.40;;
8001;SDS011;4046;48.774;8.732;2022-09-14T03:34:44;14.47;;;12.00;;
8001;SDS011;4046;48.774;8.732;2022-09-14T03:37:10;12.67;;;11.47;;
8001;SDS011;4046;48.774;8.732;2022-09-14T03:39:35;12.00;;;10.80;;
8001;SDS011;4046;48.774;8.732;2022-09-14T03:42:01;11.40;;;10.40;;
8001;SDS011;4046;48.774;8.732;2022-09-14T03:44:27;11.63;;;10.53;;
8001;SDS011;4046;48.774;8.732;2022-09-14T03:46:53;13.70;;;11.17;;
8001;SDS011;4046;48.774;8.732;2022-09-14T03:49:18;12.83;;;11.53;;
8001;SDS011;4046;48.774;8.732;2022-09-14T03:51:44;13.07;;;11.77;;
8001;SDS011;4046;48.774;8.732;2022-09-14T03:54:10;12.17;;;11.17;;
8001;SDS011;4046;48.774;8.732;2022-09-14T03:56:35;13.87;;;12.47;;
8001;SDS011;4046;48.774;8.732;2022-09-14T03:59:01;11.50;;;10.40;;
8001;SDS011;4046;48.774;8.732;2022-09-14T04:01:27;11.70;;;10.80;;
8001;SDS011;4046;48.774;8.732;2022-09-14T04:03:52;15.47;;;13.90;;
8001;SDS011;4046;48.774;8.732;2022-09-14T04:06:18;14.77;;;13.47;;
8001;SDS011;4046;48.774;8.732;2022-09-14T04:08:44;15.57;;;14.07;;
8001;SDS011;4046;48.774;8.732;2022-09-14T04:11:18;14.67;;;13.17;;
8001;SDS011;4046;48.774;8.732;2022-09-14T04:13:46;14.40;;;13.10;;
8001;SDS011;4046;48.774;8.732;2022-09-14T04:16:12;14.73;;;13.23;;
8001;SDS011;4046;48.774;8.732;2022-09-14T04:18:39;15.97;;;14.37;;
8001;SDS011;4046;48.774;8.732;2022-09-14T04:21:06;13.83;;;12.57;;
8001;SDS011;4046;48.774;8.732;2022-09-14T04:23:37;15.17;;;13.77;;
8001;SDS011;4046;48.774;8.732;2022-09-14T04:26:08;15.57;;;13.93;;
8001;SDS011;4046;48.774;8.732;2022-09-14T04:28:36;15.73;;;14.17;;
8001;SDS011;4046;48.774;8.732;2022-09-14T04:31:02;15.00;;;13.70;;
8001;SDS011;4046;48.774;8.732;2022-09-14T04:33:29;15.40;;;13.90;;
8001;SDS011;4046;48.774;8.732;2022-09-14T04:35:59;15.50;;;14.10;;
8001;SDS011;4046;48.774;8.732;2022-09-14T04:38:30;16.80;;;13.20;;
8001;SDS011;4046;48.774;8.732;2022-09-14T04:40:57;14.07;;;12.77;;
8001;SDS011;4046;48.774;8.732;2022-09-14T04:43:23;13.10;;;12.00;;
8001;SDS011;4046;48.774;8.732;2022-09-14T04:45:50;14.93;;;13.57;;
8001;SDS011;4046;48.774;8.732;2022-09-14T04:48:16;17.17;;;15.57;;
8001;SDS011;4046;48.774;8.732;2022-09-14T04:50:43;15.40;;;13.27;;
8001;SDS011;4046;48.774;8.732;2022-09-14T04:53:09;15.50;;;14.00;;
8001;SDS011;4046;48.774;8.732;2022-09-14T04:55:35;15.13;;;13.63;;
8001;SDS011;4046;48.774;8.732;2022-09-14T04:58:01;16.57;;;14.97;;
8001;SDS011;4046;48.774;8.732;2022-09-14T05:00:28;15.67;;;13.97;;
8001;SDS011;4046;48.774;8.732;2022-09-14T05:02:53;15.00;;;13.60;;
8001;SDS011;4046;48.774;8.732;2022-09-14T05:05:19;14.40;;;13.00;;
8001;SDS011;4046;48.774;8.732;2022-09-14T05:07:45;16.27;;;14.60;;
8001;SDS011;4046;48.774;8.732;2022-09-14T05:10:11;14.43;;;12.93;;
8001;SDS011;4046;48.774;8.732;2022-09-14T05:12:36;14.57;;;13.17;;
8001;SDS011;4046;48.774;8.732;2022-09-14T05:15:02;14.20;;;13.00;;
8001;SDS011;4046;48.774;8.732;2022-09-14T05:17:28;13.43;;;12.20;;
8001;SDS011;4046;48.774;8.732;2022-09-14T05:19:57;14.37;;;12.73;;
8001;SDS011;4046;48.774;8.732;2022-09-14T05:22:23;13.13;;;12.00;;
8001;SDS011;4046;48.774;8.732;2022-09-14T05:24:49;12.83;;;11.77;;
8001;SDS011;4046;48.774;8.732;2022-09-14T05:27:14;12.83;;;11.73;;
8001;SDS011;4046;48.774;8.732;2022-09-14T05:29:40;18.30;;;13.17;;
8001;SDS011;4046;48.774;8.732;2022-09-14T05:32:05;15.53;;;13.00;;
8001;SDS011;4046;48.774;8.732;2022-09-14T05:34:31;13.57;;;12.40;;
8001;SDS011;4046;48.774;8.732;2022-09-14T05:36:57;15.33;;;14.03;;
8001;SDS011;4046;48.774;8.732;2022-09-14T05:39:23;15.17;;;13.63;;
8001;SDS011;4046;48.774;8.732;2022-09-14T05:41:49;16.77;;;15.07;;
8001;SDS011;4046;48.774;8.732;2022-09-14T05:44:15;16.87;;;15.43;;
8001;SDS011;4046;48.774;8.732;2022-09-14T05:46:41;16.67;;;14.97;;
8001;SDS011;4046;48.774;8.732;2022-09-14T05:49:07;16.30;;;14.87;;
8001;SDS011;4046;48.774;8.732;2022-09-14T05:51:33;14.53;;;13.10;;
8001;SDS011;4046;48.774;8.732;2022-09-14T05:53:59;13.97;;;12.77;;
8001;SDS011;4046;48.774;8.732;2022-09-14T05:56:28;15.33;;;14.03;;
8001;SDS011;4046;48.774;8.732;2022-09-14T05:58:55;16.70;;;15.00;;
8001;SDS011;4046;48.774;8.732;2022-09-14T06:01:24;15.97;;;14.47;;
8001;SDS011;4046;48.774;8.732;2022-09-14T06:03:53;15.53;;;14.10;;
8001;SDS011;4046;48.774;8.732;2022-09-14T06:06:20;14.83;;;13.57;;
8001;SDS011;4046;48.774;8.732;2022-09-14T06:08:47;15.23;;;13.83;;
8001;SDS011;4046;48.774;8.732;2022-09-14T06:11:17;13.73;;;12.60;;
8001;SDS011;4046;48.774;8.732;2022-09-14T06:13:45;20.63;;;18.57;;
8001;SDS011;4046;48.774;8.732;2022-09-14T06:16:14;14.73;;;13.33;;
8001;SDS011;4046;48.774;8.732;2022-09-14T06:18:41;15.27;;;13.87;;
8001;SDS011;4046;48.774;8.732;2022-09-14T06:21:08;14.37;;;12.97;;
8001;SDS011;4046;48.774;8.732;2022-09-14T06:23:36;13.40;;;12.20;;
8001;SDS011;4046;48.774;8.732;2022-09-14T06:26:03;15.10;;;13.50;;
8001;SDS011;4046;48.774;8.732;2022-09-14T06:28:30;14.70;;;13.43;;
8001;SDS011;4046;48.774;8.732;2022-09-14T06:30:57;16.13;;;14.70;;
8001;SDS011;4046;48.774;8.732;2022-09-14T06:33:23;16.33;;;14.77;;
8001;SDS011;4046;48.774;8.732;2022-09-14T06:35:53;16.30;;;14.70;;
8001;SDS011;4046;48.774;8.732;2022-09-14T06:38:24;14.93;;;13.63;;
8001;SDS011;4046;48.774;8.732;2022-09-14T06:40:54;13.43;;;12.13;;
8001;SDS011;4046;48.774;8.732;2022-09-14T06:43:21;14.40;;;13.00;;
8001;SDS011;4046;48.774;8.732;2022-09-14T06:45:55;13.47;;;12.27;;
8001;SDS011;4046;48.774;8.732;2022-09-14T06:48:26;13.67;;;12.37;;
8001;SDS011;4046;48.774;8.732;2022-09-14T06:51:09;14.27;;;13.10;;
8001;SDS011;4046;48.774;8.732;2022-09-14T06:53:41;14.87;;;13.57;;
8001;SDS011;4046;48.774;8.732;2022-09-14T06:56:07;14.10;;;12.90;;
8001;SDS011;4046;48.774;8.732;2022-09-14T06:58:33;15.70;;;14.23;;
8001;SDS011;4046;48.774;8.732;2022-09-14T07:01:02;14.67;;;13.27;;
8001;SDS011;4046;48.774;8.732;2022-09-14T07:03:30;12.93;;;11.73;;
8001;SDS011;4046;48.774;8.732;2022-09-14T07:06:08;11.73;;;10.83;;
8001;SDS011;4046;48.774;8.732;2022-09-14T07:08:35;11.40;;;10.40;;
8001;SDS011;4046;48.774;8.732;2022-09-14T07:11:03;11.97;;;10.90;;
8001;SDS011;4046;48.774;8.732;2022-09-14T07:13:30;11.90;;;11.00;;
8001;SDS011;4046;48.774;8.732;2022-09-14T07:15:57;11.87;;;10.77;;
8001;SDS011;4046;48.774;8.732;2022-09-14T07:18:23;11.90;;;10.90;;
8001;SDS011;4046;48.774;8.732;2022-09-14T07:20:59;12.60;;;11.50;;
8001;SDS011;4046;48.774;8.732;2022-09-14T07:23:34;12.67;;;11.67;;
8001;SDS011;4046;48.774;8.732;2022-09-14T07:26:02;11.47;;;10.57;;
8001;SDS011;4046;48.774;8.732;2022-09-14T07:28:32;11.73;;;10.53;;
8001;SDS011;4046;48.774;8.732;2022-09-14T07:30:58;11.60;;;10.80;;
8001;SDS011;4046;48.774;8.732;2022-09-14T07:33:25;10.47;;;9.67;;
8001;SDS011;4046;48.774;8.732;2022-09-14T07:35:51;10.17;;;9.47;;
8001;SDS011;4046;48.774;8.732;2022-09-14T07:38:17;10.70;;;9.80;;
8001;SDS011;4046;48.774;8.732;2022-09-14T07:40:43;11.67;;;10.47;;
8001;SDS011;4046;48.774;8.732;2022-09-14T07:43:09;13.17;;;11.40;;
8001;SDS011;4046;48.774;8.732;2022-09-14T07:45:35;11.37;;;10.37;;
8001;SDS011;4046;48.774;8.732;2022-09-14T07:48:02;10.53;;;9.63;;
8001;SDS011;4046;48.774;8.732;2022-09-14T07:50:28;10.70;;;9.60;;
8001;SDS011;4046;48.774;8.732;2022-09-14T07:52:54;9.83;;;9.07;;
8001;SDS011;4046;48.774;8.732;2022-09-14T07:55:19;9.70;;;8.27;;
8001;SDS011;4046;48.774;8.732;2022-09-14T07:57:45;9.60;;;8.40;;
8001;SDS011;4046;48.774;8.732;2022-09-14T08:00:11;10.60;;;9.70;;
8001;SDS011;4046;48.774;8.732;2022-09-14T08:02:38;10.40;;;9.60;;
8001;SDS011;4046;48.774;8.732;2022-09-14T08:05:04;10.90;;;10.00;;
8001;SDS011;4046;48.774;8.732;2022-09-14T08:07:30;11.43;;;10.27;;
8001;SDS011;4046;48.774;8.732;2022-09-14T08:09:56;9.93;;;9.03;;
8001;SDS011;4046;48.774;8.732;2022-09-14T08:12:22;11.37;;;8.50;;
8001;SDS011;4046;48.774;8.732;2022-09-14T08:14:48;9.70;;;8.93;;
8001;SDS011;4046;48.774;8.732;2022-09-14T08:17:15;9.03;;;8.10;;
8001;SDS011;4046;48.774;8.732;2022-09-14T08:19:41;7.97;;;7.37;;
8001;SDS011;4046;48.774;8.732;2022-09-14T08:22:07;8.20;;;7.40;;
8001;SDS011;4046;48.774;8.732;2022-09-14T08:24:33;8.53;;;7.93;;
8001;SDS011;4046;48.774;8.732;2022-09-14T08:26:58;8.10;;;7.30;;
8001;SDS011;4046;48.774;8.732;2022-09-14T08:29:24;7.27;;;6.70;;
8001;SDS011;4046;48.774;8.732;2022-09-14T08:31:50;8.07;;;7.47;;
8001;SDS011;4046;48.774;8.732;2022-09-14T08:34:17;7.90;;;7.20;;
8001;SDS011;4046;48.774;8.732;2022-09-14T08:36:44;7.60;;;7.00;;
8001;SDS011;4046;48.774;8.732;2022-09-14T08:39:11;8.40;;;7.80;;
8001;SDS011;4046;48.774;8.732;2022-09-14T08:46:43;7.47;;;6.87;;
8001;SDS011;4046;48.774;8.732;2022-09-14T08:52:21;6.40;;;6.00;;
8001;SDS011;4046;48.774;8.732;2022-09-14T08:54:59;9.67;;;8.63;;
8001;SDS011;4046;48.774;8.732;2022-09-14T09:00:09;6.03;;;5.43;;
8001;SDS011;4046;48.774;8.732;2022-09-14T09:05:28;5.43;;;5.00;;
8001;SDS011;4046;48.774;8.732;2022-09-14T09:10:44;5.90;;;5.30;;
8001;SDS011;4046;48.774;8.732;2022-09-14T09:13:13;6.20;;;5.57;;
8001;SDS011;4046;48.774;8.732;2022-09-14T09:15:47;6.30;;;5.70;;
8001;SDS011;4046;48.774;8.732;2022-09-14T09:18:17;6.63;;;5.60;;
8001;SDS011;4046;48.774;8.732;2022-09-14T09:21:04;6.33;;;5.43;;
8001;SDS011;4046;48.774;8.732;2022-09-14T09:23:35;8.03;;;5.50;;
8001;SDS011;4046;48.774;8.732;2022-09-14T09:28:33;6.07;;;5.57;;
8001;SDS011;4046;48.774;8.732;2022-09-14T09:31:08;5.47;;;5.00;;
8001;SDS011;4046;48.774;8.732;2022-09-14T09:33:37;7.57;;;6.37;;
8001;SDS011;4046;48.774;8.732;2022-09-14T09:36:02;7.00;;;6.50;;
8001;SDS011;4046;48.774;8.732;2022-09-14T09:38:32;6.83;;;6.20;;
8001;SDS011;4046;48.774;8.732;2022-09-14T09:41:00;5.90;;;5.43;;
8001;SDS011;4046;48.774;8.732;2022-09-14T09:43:35;5.40;;;4.90;;
8001;SDS011;4046;48.774;8.732;2022-09-14T09:46:24;5.77;;;5.27;;
8001;SDS011;4046;48.774;8.732;2022-09-14T09:48:55;5.37;;;4.70;;
8001;SDS011;4046;48.774;8.732;2022-09-14T09:51:29;4.80;;;4.50;;
8001;SDS011;4046;48.774;8.732;2022-09-14T09:56:30;5.53;;;4.13;;
8001;SDS011;4046;48.774;8.732;2022-09-14T09:58:57;8.10;;;4.63;;
8001;SDS011;4046;48.774;8.732;2022-09-14T10:04:02;4.90;;;3.40;;
8001;SDS011;4046;48.774;8.732;2022-09-14T10:06:28;5.70;;;3.97;;
8001;SDS011;4046;48.774;8.732;2022-09-14T10:08:55;6.20;;;4.20;;
8001;SDS011;4046;48.774;8.732;2022-09-14T10:11:32;4.30;;;4.00;;
8001;SDS011;4046;48.774;8.732;2022-09-14T10:14:02;6.23;;;4.30;;
8001;SDS011;4046;48.774;8.732;2022-09-14T10:16:35;4.37;;;4.00;;
8001;SDS011;4046;48.774;8.732;2022-09-14T10:19:03;5.90;;;3.90;;
8001;SDS011;4046;48.774;8.732;2022-09-14T10:22:00;5.00;;;3.87;;
8001;SDS011;4046;48.774;8.732;2022-09-14T10:24:40;4.30;;;3.90;;
8001;SDS011;4046;48.774;8.732;2022-09-14T10:27:28;5.87;;;4.00;;
8001;SDS011;4046;48.774;8.732;2022-09-14T10:30:04;4.23;;;3.67;;
8001;SDS011;4046;48.774;8.732;2022-09-14T10:32:36;6.20;;;3.90;;
8001;SDS011;4046;48.774;8.732;2022-09-14T10:35:11;3.67;;;3.37;;
8001;SDS011;4046;48.774;8.732;2022-09-14T10:40:31;3.17;;;2.90;;
8001;SDS011;4046;48.774;8.732;2022-09-14T10:43:12;3.40;;;3.10;;
8001;SDS011;4046;48.774;8.732;2022-09-14T10:45:48;3.67;;;2.60;;
8001;SDS011;4046;48.774;8.732;2022-09-14T10:50:53;3.40;;;3.10;;
8001;SDS011;4046;48.774;8.732;2022-09-14T10:55:58;5.00;;;3.03;;
8001;SDS011;4046;48.774;8.732;2022-09-14T11:04:45;3.10;;;2.83;;
8001;SDS011;4046;48.774;8.732;2022-09-14T11:07:34;5.00;;;2.97;;
8001;SDS011;4046;48.774;8.732;2022-09-14T11:10:27;3.73;;;3.20;;
8001;SDS011;4046;48.774;8.732;2022-09-14T11:13:22;4.53;;;3.17;;
8001;SDS011;4046;48.774;8.732;2022-09-14T11:18:46;3.27;;;3.03;;
8001;SDS011;4046;48.774;8.732;2022-09-14T11:21:42;3.50;;;3.20;;
8001;SDS011;4046;48.774;8.732;2022-09-14T11:24:22;5.40;;;3.20;;
8001;SDS011;4046;48.774;8.732;2022-09-14T11:27:07;3.30;;;2.70;;
8001;SDS011;4046;48.774;8.732;2022-09-14T11:29:43;3.40;;;2.70;;
8001;SDS011;4046;48.774;8.732;2022-09-14T11:32:18;4.20;;;2.63;;
8001;SDS011;4046;48.774;8.732;2022-09-14T11:40:15;5.63;;;2.33;;
8001;SDS011;4046;48.774;8.732;2022-09-14T11:45:44;3.70;;;2.80;;
8001;SDS011;4046;48.774;8.732;2022-09-14T11:48:21;3.30;;;2.57;;
8001;SDS011;4046;48.774;8.732;2022-09-14T11:51:01;4.23;;;2.73;;
8001;SDS011;4046;48.774;8.732;2022-09-14T11:53:32;4.77;;;3.27;;
8001;SDS011;4046;48.774;8.732;2022-09-14T11:55:59;2.90;;;2.50;;
8001;SDS011;4046;48.774;8.732;2022-09-14T11:58:26;3.30;;;3.00;;
8001;SDS011;4046;48.774;8.732;2022-09-14T12:01:00;3.77;;;3.47;;
8001;SDS011;4046;48.774;8.732;2022-09-14T12:11:47;4.70;;;3.43;;
8001;SDS011;4046;48.774;8.732;2022-09-14T12:19:45;4.00;;;3.57;;
8001;SDS011;4046;48.774;8.732;2022-09-14T12:22:19;4.53;;;3.80;;
8001;SDS011;4046;48.774;8.732;2022-09-14T12:24:57;5.23;;;3.50;;
8001;SDS011;4046;48.774;8.732;2022-09-14T12:27:27;4.17;;;3.77;;
8001;SDS011;4046;48.774;8.732;2022-09-14T12:29:55;4.40;;;3.63;;
8001;SDS011;4046;48.774;8.732;2022-09-14T12:32:37;5.10;;;4.60;;
8001;SDS011;4046;48.774;8.732;2022-09-14T12:37:58;4.90;;;4.40;;
8001;SDS011;4046;48.774;8.732;2022-09-14T12:40:43;5.13;;;4.63;;
8001;SDS011;4046;48.774;8.732;2022-09-14T12:46:10;20.80;;;6.17;;
8001;SDS011;4046;48.774;8.732;2022-09-14T12:48:58;4.87;;;4.43;;
8001;SDS011;4046;48.774;8.732;2022-09-14T12:54:08;4.83;;;4.30;;
8001;SDS011;4046;48.774;8.732;2022-09-14T13:02:35;4.50;;;4.10;;
8001;SDS011;4046;48.774;8.732;2022-09-14T13:05:26;10.10;;;4.57;;
8001;SDS011;4046;48.774;8.732;2022-09-14T13:07:53;4.63;;;3.87;;
8001;SDS011;4046;48.774;8.732;2022-09-14T13:10:24;4.93;;;3.60;;
8001;SDS011;4046;48.774;8.732;2022-09-14T13:12:55;4.37;;;3.87;;
8001;SDS011;4046;48.774;8.732;2022-09-14T13:15:25;6.07;;;4.33;;
8001;SDS011;4046;48.774;8.732;2022-09-14T13:18:05;4.83;;;4.33;;
8001;SDS011;4046;48.774;8.732;2022-09-14T13:20:51;4.10;;;3.70;;
8001;SDS011;4046;48.774;8.732;2022-09-14T13:23:21;7.30;;;5.13;;
8001;SDS011;4046;48.774;8.732;2022-09-14T13:25:48;4.73;;;4.33;;
8001;SDS011;4046;48.774;8.732;2022-09-14T13:28:15;7.50;;;5.00;;
8001;SDS011;4046;48.774;8.732;2022-09-14T13:30:43;6.73;;;4.40;;
8001;SDS011;4046;48.774;8.732;2022-09-14T13:33:22;8.80;;;4.57;;
8001;SDS011;4046;48.774;8.732;2022-09-14T13:38:23;8.40;;;4.73;;
8001;SDS011;4046;48.774;8.732;2022-09-14T13:40:51;8.73;;;5.47;;
8001;SDS011;4046;48.774;8.732;2022-09-14T13:43:19;6.00;;;4.40;;
8001;SDS011;4046;48.774;8.732;2022-09-14T13:45:47;4.93;;;4.43;;
8001;SDS011;4046;48.774;8.732;2022-09-14T13:48:15;4.73;;;4.23;;
8001;SDS011;4046;48.774;8.732;2022-09-14T13:50:43;6.40;;;4.50;;
8001;SDS011;4046;48.774;8.732;2022-09-14T13:56:22;4.90;;;4.50;;
8001;SDS011;4046;48.774;8.732;2022-09-14T14:01:34;6.40;;;4.73;;
8001;SDS011;4046;48.774;8.732;2022-09-14T14:04:04;5.70;;;5.20;;
8001;SDS011;4046;48.774;8.732;2022-09-14T14:06:44;5.73;;;5.20;;
8001;SDS011;4046;48.774;8.732;2022-09-14T14:09:10;5.33;;;4.93;;
8001;SDS011;4046;48.774;8.732;2022-09-14T14:11:43;4.73;;;4.33;;
8001;SDS011;4046;48.774;8.732;2022-09-14T14:17:08;4.90;;;4.20;;
8001;SDS011;4046;48.774;8.732;2022-09-14T14:19:46;4.87;;;4.40;;
8001;SDS011;4046;48.774;8.732;2022-09-14T14:24:38;5.60;;;5.07;;
8001;SDS011;4046;48.774;8.732;2022-09-14T14:27:04;5.17;;;4.67;;
8001;SDS011;4046;48.774;8.732;2022-09-14T14:29:30;4.70;;;4.30;;
8001;SDS011;4046;48.774;8.732;2022-09-14T14:31:56;6.00;;;5.03;;
8001;SDS011;4046;48.774;8.732;2022-09-14T14:34:24;5.73;;;4.23;;
8001;SDS011;4046;48.774;8.732;2022-09-14T14:36:51;4.83;;;4.33;;
8001;SDS011;4046;48.774;8.732;2022-09-14T14:39:22;5.47;;;4.90;;
8001;SDS011;4046;48.774;8.732;2022-09-14T14:41:49;6.23;;;4.90;;
8001;SDS011;4046;48.774;8.732;2022-09-14T14:44:18;5.77;;;5.27;;
8001;SDS011;4046;48.774;8.732;2022-09-14T14:46:45;5.83;;;5.23;;
8001;SDS011;4046;48.774;8.732;2022-09-14T14:49:12;5.60;;;4.30;;
8001;SDS011;4046;48.774;8.732;2022-09-14T14:51:39;4.20;;;3.80;;
8001;SDS011;4046;48.774;8.732;2022-09-14T14:54:06;2.23;;;1.97;;
8001;SDS011;4046;48.774;8.732;2022-09-14T14:56:32;1.97;;;1.80;;
8001;SDS011;4046;48.774;8.732;2022-09-14T14:58:59;2.73;;;2.10;;
8001;SDS011;4046;48.774;8.732;2022-09-14T15:01:25;2.23;;;2.00;;
8001;SDS011;4046;48.774;8.732;2022-09-14T15:03:50;1.53;;;1.43;;
8001;SDS011;4046;48.774;8.732;2022-09-14T15:06:20;1.70;;;1.60;;
8001;SDS011;4046;48.774;8.732;2022-09-14T15:08:51;3.30;;;2.10;;
8001;SDS011;4046;48.774;8.732;2022-09-14T15:11:18;2.20;;;2.00;;
8001;SDS011;4046;48.774;8.732;2022-09-14T15:13:44;2.63;;;2.00;;
8001;SDS011;4046;48.774;8.732;2022-09-14T15:16:11;2.30;;;2.10;;
8001;SDS011;4046;48.774;8.732;2022-09-14T15:18:38;3.70;;;3.13;;
8001;SDS011;4046;48.774;8.732;2022-09-14T15:21:04;2.50;;;2.30;;
8001;SDS011;4046;48.774;8.732;2022-09-14T15:23:30;6.67;;;2.73;;
8001;SDS011;4046;48.774;8.732;2022-09-14T15:25:56;2.57;;;2.37;;
8001;SDS011;4046;48.774;8.732;2022-09-14T15:28:21;2.03;;;1.80;;
8001;SDS011;4046;48.774;8.732;2022-09-14T15:30:47;2.50;;;2.30;;
8001;SDS011;4046;48.774;8.732;2022-09-14T15:33:13;2.47;;;2.10;;
8001;SDS011;4046;48.774;8.732;2022-09-14T15:35:38;1.70;;;1.50;;
8001;SDS011;4046;48.774;8.732;2022-09-14T15:38:04;2.30;;;1.90;;
8001;SDS011;4046;48.774;8.732;2022-09-14T15:40:30;2.03;;;1.73;;
8001;SDS011;4046;48.774;8.732;2022-09-14T15:42:56;1.90;;;1.70;;
8001;SDS011;4046;48.774;8.732;2022-09-14T15:45:22;3.50;;;2.10;;
8001;SDS011;4046;48.774;8.732;2022-09-14T15:47:48;2.70;;;1.77;;
8001;SDS011;4046;48.774;8.732;2022-09-14T15:50:14;3.33;;;1.60;;
8001;SDS011;4046;48.774;8.732;2022-09-14T15:52:40;2.47;;;2.00;;
8001;SDS011;4046;48.774;8.732;2022-09-14T15:55:07;3.00;;;1.80;;
8001;SDS011;4046;48.774;8.732;2022-09-14T15:57:34;2.47;;;1.60;;
8001;SDS011;4046;48.774;8.732;2022-09-14T16:00:02;5.10;;;3.27;;
8001;SDS011;4046;48.774;8.732;2022-09-14T16:02:33;2.30;;;2.13;;
8001;SDS011;4046;48.774;8.732;2022-09-14T16:04:59;3.80;;;2.10;;
8001;SDS011;4046;48.774;8.732;2022-09-14T16:07:24;2.60;;;2.30;;
8001;SDS011;4046;48.774;8.732;2022-09-14T16:09:51;2.07;;;1.97;;
8001;SDS011;4046;48.774;8.732;2022-09-14T16:12:17;3.70;;;2.13;;
8001;SDS011;4046;48.774;8.732;2022-09-14T16:14:43;2.50;;;2.30;;
8001;SDS011;4046;48.774;8.732;2022-09-14T16:17:08;3.30;;;2.80;;
8001;SDS011;4046;48.774;8.732;2022-09-14T16:19:35;5.57;;;2.60;;
8001;SDS011;4046;48.774;8.732;2022-09-14T16:22:01;2.60;;;2.10;;
8001;SDS011;4046;48.774;8.732;2022-09-14T16:24:27;2.80;;;2.47;;
8001;SDS011;4046;48.774;8.732;2022-09-14T16:26:53;2.90;;;2.53;;
8001;SDS011;4046;48.774;8.732;2022-09-14T16:29:19;2.47;;;2.27;;
8001;SDS011;4046;48.774;8.732;2022-09-14T16:31:46;2.40;;;2.20;;
8001;SDS011;4046;48.774;8.732;2022-09-14T16:34:14;4.80;;;2.50;;
8001;SDS011;4046;48.774;8.732;2022-09-14T16:36:44;3.03;;;2.50;;
8001;SDS011;4046;48.774;8.732;2022-09-14T16:39:15;2.90;;;2.33;;
8001;SDS011;4046;48.774;8.732;2022-09-14T16:41:47;3.17;;;2.47;;
8001;SDS011;4046;48.774;8.732;2022-09-14T16:44:14;3.73;;;2.20;;
8001;SDS011;4046;48.774;8.732;2022-09-14T16:46:43;4.00;;;2.63;;
8001;SDS011;4046;48.774;8.732;2022-09-14T16:49:10;3.07;;;2.87;;
8001;SDS011;4046;48.774;8.732;2022-09-14T16:51:36;3.47;;;2.70;;
8001;SDS011;4046;48.774;8.732;2022-09-14T16:54:03;3.10;;;2.80;;
8001;SDS011;4046;48.774;8.732;2022-09-14T16:56:29;6.20;;;3.00;;
8001;SDS011;4046;48.774;8.732;2022-09-14T16:58:57;3.60;;;3.20;;
8001;SDS011;4046;48.774;8.732;2022-09-14T17:01:28;3.73;;;2.43;;
8001;SDS011;4046;48.774;8.732;2022-09-14T17:03:57;3.13;;;2.80;;
8001;SDS011;4046;48.774;8.732;2022-09-14T17:06:25;3.60;;;3.13;;
8001;SDS011;4046;48.774;8.732;2022-09-14T17:08:54;2.57;;;2.37;;
8001;SDS011;4046;48.774;8.732;2022-09-14T17:11:31;3.07;;;2.80;;
8001;SDS011;4046;48.774;8.732;2022-09-14T17:13:58;4.03;;;3.00;;
8001;SDS011;4046;48.774;8.732;2022-09-14T17:16:24;3.07;;;2.83;;
8001;SDS011;4046;48.774;8.732;2022-09-14T17:18:51;4.00;;;2.90;;
8001;SDS011;4046;48.774;8.732;2022-09-14T17:21:19;3.57;;;2.67;;
8001;SDS011;4046;48.774;8.732;2022-09-14T17:23:47;7.33;;;3.90;;
8001;SDS011;4046;48.774;8.732;2022-09-14T17:26:14;6.60;;;2.67;;
8001;SDS011;4046;48.774;8.732;2022-09-14T17:28:45;4.60;;;2.77;;